createdAt,value
2023-02-19T00:01:12.989Z,9.07
2023-02-19T00:03:40.370Z,9.08
2023-02-19T00:06:09.959Z,9.06
2023-02-19T00:08:38.329Z,9.06
2023-02-19T00:11:11.108Z,9.06
2023-02-19T00:13:39.114Z,9.06
2023-02-19T00:16:16.619Z,9.05
2023-02-19T00:18:43.484Z,9.04
2023-02-19T00:21:10.314Z,9.06
2023-02-19T00:23:37.605Z,9.04
2023-02-19T00:26:18.089Z,9.03
2023-02-19T00:28:46.743Z,9.02
2023-02-19T00:31:18.165Z,9.01
2023-02-19T00:33:45.696Z,9.03
2023-02-19T00:36:13.547Z,9.01
2023-02-19T00:38:41.956Z,9.01
2023-02-19T00:41:21.614Z,9.00
2023-02-19T00:43:53.537Z,9.00
2023-02-19T00:46:28.656Z,9.00
2023-02-19T00:48:56.260Z,9.01
2023-02-19T00:51:25.683Z,9.00
2023-02-19T00:53:52.520Z,8.99
2023-02-19T00:56:19.279Z,9.01
2023-02-19T00:58:46.500Z,8.99
2023-02-19T01:01:13.589Z,9.00
2023-02-19T01:03:40.711Z,9.00
2023-02-19T01:06:09.517Z,8.99
2023-02-19T01:08:36.392Z,8.99
2023-02-19T01:11:04.558Z,8.99
2023-02-19T01:13:31.527Z,9.00
2023-02-19T01:16:09.330Z,9.02
2023-02-19T01:18:35.999Z,9.00
2023-02-19T01:21:07.911Z,9.01
2023-02-19T01:23:35.251Z,9.00
2023-02-19T01:26:05.358Z,9.00
2023-02-19T01:28:31.904Z,8.98
2023-02-19T01:31:03.704Z,8.99
2023-02-19T01:33:31.198Z,8.98
2023-02-19T01:35:57.800Z,8.97
2023-02-19T01:38:24.235Z,8.96
2023-02-19T01:40:58.351Z,8.94
2023-02-19T01:43:25.072Z,8.93
2023-02-19T01:45:53.445Z,8.91
2023-02-19T01:48:39.254Z,8.89
2023-02-19T01:51:11.312Z,8.87
2023-02-19T01:53:41.910Z,8.86
2023-02-19T01:56:09.817Z,8.85
2023-02-19T01:58:37.716Z,8.83
2023-02-19T02:01:07.116Z,8.82
2023-02-19T02:03:35.609Z,8.80
2023-02-19T02:06:07.918Z,8.79
2023-02-19T02:08:52.847Z,8.77
2023-02-19T02:11:20.305Z,8.76
2023-02-19T02:13:46.916Z,8.77
2023-02-19T02:16:26.971Z,8.75
2023-02-19T02:19:00.049Z,8.73
2023-02-19T02:21:44.458Z,8.73
2023-02-19T02:24:43.873Z,8.72
2023-02-19T02:27:33.214Z,8.71
2023-02-19T02:30:38.637Z,8.71
2023-02-19T02:33:41.294Z,8.71
2023-02-19T02:36:13.106Z,8.69
2023-02-19T02:38:42.739Z,8.69
2023-02-19T02:41:09.867Z,8.67
2023-02-19T02:43:36.556Z,8.67
2023-02-19T02:46:03.136Z,8.67
2023-02-19T02:48:47.280Z,8.67
2023-02-19T02:51:31.827Z,8.66
2023-02-19T02:54:25.455Z,8.65
2023-02-19T02:56:53.004Z,8.65
2023-02-19T02:59:23.649Z,8.66
2023-02-19T03:02:14.278Z,8.65
2023-02-19T03:05:25.264Z,8.64
2023-02-19T03:08:11.242Z,8.62
2023-02-19T03:10:49.040Z,8.63
2023-02-19T03:13:56.889Z,8.63
2023-02-19T03:16:47.575Z,8.65
2023-02-19T03:19:19.169Z,8.65
2023-02-19T03:21:51.724Z,8.65
2023-02-19T03:24:41.038Z,8.65
2023-02-19T03:27:11.537Z,8.65
2023-02-19T03:29:41.005Z,8.62
2023-02-19T03:32:33.458Z,8.62
2023-02-19T03:35:20.669Z,8.61
2023-02-19T03:38:04.502Z,8.62
2023-02-19T03:40:40.044Z,8.62
2023-02-19T03:43:23.421Z,8.61
2023-02-19T03:45:49.798Z,8.59
2023-02-19T03:48:22.898Z,8.60
2023-02-19T03:51:05.494Z,8.59
2023-02-19T03:53:34.877Z,8.58
2023-02-19T03:56:10.901Z,8.58
2023-02-19T03:58:49.230Z,8.55
2023-02-19T04:01:32.419Z,8.53
2023-02-19T04:04:12.645Z,8.51
2023-02-19T04:06:42.140Z,8.49
2023-02-19T04:09:11.703Z,8.49
2023-02-19T04:11:38.978Z,8.48
2023-02-19T04:14:11.594Z,8.47
2023-02-19T04:16:42.669Z,8.45
2023-02-19T04:19:16.823Z,8.45
2023-02-19T04:21:45.268Z,8.42
2023-02-19T04:24:18.842Z,8.43
2023-02-19T04:26:45.363Z,8.43
2023-02-19T04:29:11.860Z,8.44
2023-02-19T04:31:38.604Z,8.44
2023-02-19T04:34:05.378Z,8.42
2023-02-19T04:36:33.158Z,8.41
2023-02-19T04:38:59.638Z,8.44
2023-02-19T04:41:26.055Z,8.43
2023-02-19T04:43:52.498Z,8.42
2023-02-19T04:46:19.039Z,8.43
2023-02-19T04:48:45.571Z,8.42
2023-02-19T04:51:12.358Z,8.42
2023-02-19T04:53:38.983Z,8.41
2023-02-19T04:56:10.612Z,8.42
2023-02-19T04:58:37.357Z,8.41
2023-02-19T05:01:04.358Z,8.42
2023-02-19T05:03:31.490Z,8.43
2023-02-19T05:05:57.899Z,8.43
2023-02-19T05:08:24.281Z,8.42
2023-02-19T05:10:50.694Z,8.43
2023-02-19T05:13:17.174Z,8.42
2023-02-19T05:16:04.070Z,8.42
2023-02-19T05:18:31.368Z,8.41
2023-02-19T05:20:59.346Z,8.39
2023-02-19T05:23:25.870Z,8.41
2023-02-19T05:25:52.690Z,8.42
2023-02-19T05:28:19.259Z,8.40
2023-02-19T05:30:51.108Z,8.39
2023-02-19T05:33:20.820Z,8.39
2023-02-19T05:35:49.829Z,8.37
2023-02-19T05:38:17.284Z,8.35
2023-02-19T05:40:44.875Z,8.34
2023-02-19T05:43:12.149Z,8.33
2023-02-19T05:45:39.005Z,8.32
2023-02-19T05:48:07.014Z,8.32
2023-02-19T05:50:35.341Z,8.30
2023-02-19T05:53:02.877Z,8.31
2023-02-19T05:55:30.133Z,8.29
2023-02-19T05:57:56.529Z,8.30
2023-02-19T06:00:23.173Z,8.30
2023-02-19T06:02:49.633Z,8.29
2023-02-19T06:05:16.116Z,8.27
2023-02-19T06:07:42.972Z,8.29
2023-02-19T06:10:11.067Z,8.30
2023-02-19T06:12:38.402Z,8.28
2023-02-19T06:15:06.439Z,8.27
2023-02-19T06:17:34.067Z,8.25
2023-02-19T06:20:00.881Z,8.24
2023-02-19T06:22:27.964Z,8.24
2023-02-19T06:24:54.341Z,8.24
2023-02-19T06:27:21.148Z,8.22
2023-02-19T06:29:47.607Z,8.21
2023-02-19T06:32:14.203Z,8.20
2023-02-19T06:34:40.703Z,8.17
2023-02-19T06:37:07.190Z,8.15
2023-02-19T06:39:33.612Z,8.13
2023-02-19T06:42:00.152Z,8.11
2023-02-19T06:44:26.577Z,8.11
2023-02-19T06:46:55.350Z,8.10
2023-02-19T06:49:21.986Z,8.10
2023-02-19T06:51:48.456Z,8.09
2023-02-19T06:54:14.937Z,8.09
2023-02-19T06:56:42.882Z,8.05
2023-02-19T06:59:16.910Z,8.04
2023-02-19T07:01:44.853Z,8.06
2023-02-19T07:04:11.414Z,8.04
2023-02-19T07:06:38.234Z,8.04
2023-02-19T07:09:06.727Z,8.06
2023-02-19T07:11:34.967Z,8.04
2023-02-19T07:14:03.724Z,8.04
2023-02-19T07:16:30.814Z,8.04
2023-02-19T07:18:58.641Z,8.04
2023-02-19T07:21:25.291Z,8.04
2023-02-19T07:23:52.175Z,8.03
2023-02-19T07:26:20.937Z,8.03
2023-02-19T07:28:49.761Z,8.04
2023-02-19T07:31:18.696Z,8.03
2023-02-19T07:33:46.141Z,8.04
2023-02-19T07:36:14.072Z,8.06
2023-02-19T07:38:40.518Z,8.07
2023-02-19T07:41:07.574Z,8.06
2023-02-19T07:43:36.673Z,8.08
2023-02-19T07:46:09.062Z,8.08
2023-02-19T07:48:36.728Z,8.11
2023-02-19T07:51:04.991Z,8.12
2023-02-19T07:53:33.533Z,8.14
2023-02-19T07:56:01.968Z,8.15
2023-02-19T07:58:29.113Z,8.14
2023-02-19T08:00:55.859Z,8.14
2023-02-19T08:03:22.455Z,8.15
2023-02-19T08:05:51.379Z,8.15
2023-02-19T08:08:18.000Z,8.15
2023-02-19T08:11:02.827Z,8.14
2023-02-19T08:13:30.850Z,8.15
2023-02-19T08:16:20.117Z,8.15
2023-02-19T08:18:48.746Z,8.17
2023-02-19T08:21:18.220Z,8.21
2023-02-19T08:23:46.192Z,8.24
2023-02-19T08:26:12.595Z,8.23
2023-02-19T08:28:39.052Z,8.23
2023-02-19T08:31:07.463Z,8.23
2023-02-19T08:33:34.191Z,8.22
2023-02-19T08:36:09.047Z,8.22
2023-02-19T08:38:36.853Z,8.22
2023-02-19T08:41:09.214Z,8.23
2023-02-19T08:43:36.182Z,8.27
2023-02-19T08:46:06.485Z,8.32
2023-02-19T08:48:33.630Z,8.39
2023-02-19T08:51:03.866Z,8.45
2023-02-19T08:53:33.140Z,8.44
2023-02-19T08:56:04.846Z,8.45
2023-02-19T08:58:32.798Z,8.45
2023-02-19T09:00:59.540Z,8.49
2023-02-19T09:03:26.252Z,8.54
2023-02-19T09:05:53.010Z,8.60
2023-02-19T09:08:19.587Z,8.63
2023-02-19T09:10:49.296Z,8.69
2023-02-19T09:13:15.720Z,8.80
2023-02-19T09:15:42.097Z,8.81
2023-02-19T09:18:08.510Z,8.91
2023-02-19T09:20:34.922Z,9.02
2023-02-19T09:23:01.424Z,8.96
2023-02-19T09:25:30.806Z,8.99
2023-02-19T09:27:57.370Z,8.98
2023-02-19T09:30:24.038Z,8.95
2023-02-19T09:32:50.558Z,8.95
2023-02-19T09:35:17.002Z,8.97
2023-02-19T09:37:43.557Z,8.95
2023-02-19T09:40:10.850Z,8.88
2023-02-19T09:42:41.921Z,8.82
2023-02-19T09:45:16.312Z,8.81
2023-02-19T09:47:42.787Z,8.75
2023-02-19T09:50:15.045Z,8.71
2023-02-19T09:53:01.552Z,8.69
2023-02-19T09:55:36.703Z,8.74
2023-02-19T09:58:15.281Z,8.70
2023-02-19T10:00:41.807Z,8.64
2023-02-19T10:03:16.054Z,8.68
2023-02-19T10:05:42.990Z,8.72
2023-02-19T10:08:15.850Z,8.76
2023-02-19T10:10:44.218Z,8.76
2023-02-19T10:13:22.721Z,8.64
2023-02-19T10:15:56.269Z,8.62
2023-02-19T10:18:25.795Z,8.48
2023-02-19T10:20:53.004Z,8.34
2023-02-19T10:23:19.973Z,8.28
2023-02-19T10:25:54.196Z,8.25
2023-02-19T10:28:24.629Z,8.27
2023-02-19T10:30:57.692Z,8.30
2023-02-19T10:33:25.291Z,8.32
2023-02-19T10:35:56.189Z,8.30
2023-02-19T10:38:30.167Z,8.31
2023-02-19T10:41:01.827Z,8.31
2023-02-19T10:43:33.866Z,8.33
2023-02-19T10:46:08.516Z,8.37
2023-02-19T10:48:40.815Z,8.46
2023-02-19T10:51:11.280Z,8.48
2023-02-19T10:53:45.169Z,8.43
2023-02-19T10:56:26.278Z,8.40
2023-02-19T10:58:53.161Z,8.38
2023-02-19T11:01:22.224Z,8.35
2023-02-19T11:03:52.464Z,8.34
2023-02-19T11:06:26.650Z,8.38
2023-02-19T11:08:58.724Z,8.45
2023-02-19T11:11:37.833Z,8.49
2023-02-19T11:14:14.650Z,8.51
2023-02-19T11:16:46.286Z,8.46
2023-02-19T11:19:36.597Z,8.44
2023-02-19T11:22:19.886Z,8.44
2023-02-19T11:24:56.201Z,8.44
2023-02-19T11:27:25.255Z,8.43
2023-02-19T11:29:51.713Z,8.41
2023-02-19T11:32:21.195Z,8.42
2023-02-19T11:34:48.107Z,8.52
2023-02-19T11:37:16.976Z,8.52
2023-02-19T11:39:46.558Z,8.64
2023-02-19T11:42:30.223Z,8.58
2023-02-19T11:45:28.680Z,8.55
2023-02-19T11:48:10.707Z,8.61
2023-02-19T11:51:00.407Z,8.57
2023-02-19T11:53:28.343Z,8.56
2023-02-19T11:56:11.510Z,8.59
2023-02-19T11:58:59.514Z,8.53
2023-02-19T12:01:56.443Z,8.55
2023-02-19T12:04:25.853Z,8.51
2023-02-19T12:07:25.807Z,8.45
2023-02-19T12:10:00.910Z,8.34
2023-02-19T12:12:47.251Z,8.19
2023-02-19T12:15:34.936Z,8.20
2023-02-19T12:18:31.256Z,7.99
2023-02-19T12:21:10.620Z,7.90
2023-02-19T12:23:54.696Z,7.86
2023-02-19T12:26:28.605Z,7.77
2023-02-19T12:29:05.850Z,7.75
2023-02-19T12:31:35.320Z,7.67
2023-02-19T12:34:29.271Z,7.59
2023-02-19T12:37:07.977Z,7.58
2023-02-19T12:39:41.090Z,7.55
2023-02-19T12:42:25.985Z,7.50
2023-02-19T12:45:01.222Z,7.50
2023-02-19T12:47:38.077Z,7.57
2023-02-19T12:50:21.515Z,7.65
2023-02-19T12:52:53.796Z,7.65
2023-02-19T12:55:28.814Z,7.58
2023-02-19T12:57:57.996Z,7.50
2023-02-19T13:00:42.812Z,7.45
2023-02-19T13:03:32.460Z,7.46
2023-02-19T13:06:21.678Z,7.44
2023-02-19T13:09:06.698Z,7.46
2023-02-19T13:11:51.668Z,7.46
2023-02-19T13:14:36.923Z,7.49
2023-02-19T13:17:19.854Z,7.48
2023-02-19T13:19:50.424Z,7.51
2023-02-19T13:22:50.172Z,7.47
2023-02-19T13:25:19.096Z,7.42
2023-02-19T13:28:03.799Z,7.43
2023-02-19T13:31:00.228Z,7.41
2023-02-19T13:33:48.411Z,7.33
2023-02-19T13:36:21.506Z,7.26
2023-02-19T13:38:50.217Z,7.25
2023-02-19T13:41:40.349Z,7.22
2023-02-19T13:44:16.069Z,7.25
2023-02-19T13:46:45.464Z,7.28
2023-02-19T13:49:33.720Z,7.25
2023-02-19T13:52:02.223Z,7.27
2023-02-19T13:54:33.352Z,7.31
2023-02-19T13:57:22.786Z,7.30
2023-02-19T13:59:50.699Z,7.38
2023-02-19T14:02:20.214Z,7.42
2023-02-19T14:05:01.214Z,7.48
2023-02-19T14:07:27.588Z,7.56
2023-02-19T14:09:54.682Z,7.60
2023-02-19T14:12:22.890Z,7.64
2023-02-19T14:14:56.959Z,7.65
2023-02-19T14:17:35.167Z,7.64
2023-02-19T14:20:09.070Z,7.69
2023-02-19T14:22:55.528Z,7.69
2023-02-19T14:25:30.728Z,7.73
2023-02-19T14:28:13.402Z,7.77
2023-02-19T14:31:11.234Z,7.75
2023-02-19T14:33:40.211Z,7.78
2023-02-19T14:36:16.837Z,7.80
2023-02-19T14:39:12.425Z,7.86
2023-02-19T14:41:42.153Z,7.80
2023-02-19T14:44:19.398Z,7.82
2023-02-19T14:46:57.869Z,7.81
2023-02-19T14:50:02.855Z,7.85
2023-02-19T14:52:36.603Z,7.93
2023-02-19T14:55:14.913Z,7.93
2023-02-19T14:57:45.723Z,7.90
2023-02-19T15:00:33.557Z,7.88
2023-02-19T15:03:00.136Z,7.93
2023-02-19T15:05:29.379Z,7.96
2023-02-19T15:07:59.684Z,8.04
2023-02-19T15:10:29.045Z,8.02
2023-02-19T15:13:05.933Z,8.01
2023-02-19T15:15:53.514Z,8.07
2023-02-19T15:18:22.666Z,8.06
2023-02-19T15:20:50.486Z,8.02
2023-02-19T15:23:22.352Z,8.04
2023-02-19T15:25:49.517Z,7.99
2023-02-19T15:28:20.090Z,7.86
2023-02-19T15:30:46.705Z,7.86
2023-02-19T15:33:19.040Z,7.83
2023-02-19T15:35:57.750Z,7.84
2023-02-19T15:38:25.544Z,7.83
2023-02-19T15:40:53.143Z,7.79
2023-02-19T15:43:34.696Z,7.75
2023-02-19T15:46:13.179Z,7.73
2023-02-19T15:48:49.760Z,7.67
2023-02-19T15:51:24.601Z,7.55
2023-02-19T15:54:07.548Z,7.45
2023-02-19T15:56:37.846Z,7.43
2023-02-19T15:59:15.805Z,7.37
2023-02-19T16:01:42.419Z,7.42
2023-02-19T16:04:17.351Z,7.44
2023-02-19T16:06:58.949Z,7.41
2023-02-19T16:09:37.060Z,7.37
2023-02-19T16:12:19.375Z,7.36
2023-02-19T16:14:45.827Z,7.36
2023-02-19T16:17:16.639Z,7.25
2023-02-19T16:19:45.585Z,7.20
2023-02-19T16:22:15.963Z,7.14
2023-02-19T16:24:45.754Z,7.10
2023-02-19T16:27:25.729Z,7.12
2023-02-19T16:29:52.225Z,7.11
2023-02-19T16:32:19.051Z,7.09
2023-02-19T16:34:51.543Z,7.05
2023-02-19T16:37:33.161Z,7.03
2023-02-19T16:40:08.658Z,6.95
2023-02-19T16:42:38.034Z,6.99
2023-02-19T16:45:07.970Z,6.95
2023-02-19T16:47:38.241Z,6.94
2023-02-19T16:50:13.161Z,6.92
2023-02-19T16:52:54.217Z,6.87
2023-02-19T16:55:20.958Z,6.85
2023-02-19T16:57:47.837Z,6.78
2023-02-19T17:00:21.490Z,6.75
2023-02-19T17:02:50.750Z,6.72
2023-02-19T17:05:18.285Z,6.71
2023-02-19T17:07:44.872Z,6.69
2023-02-19T17:10:17.720Z,6.67
2023-02-19T17:12:44.247Z,6.72
2023-02-19T17:15:12.232Z,6.72
2023-02-19T17:17:39.030Z,6.73
2023-02-19T17:20:17.472Z,6.67
2023-02-19T17:22:44.623Z,6.64
2023-02-19T17:25:11.265Z,6.60
2023-02-19T17:27:37.720Z,6.59
2023-02-19T17:30:12.892Z,6.59
2023-02-19T17:32:39.414Z,6.60
2023-02-19T17:35:06.472Z,6.58
2023-02-19T17:37:32.860Z,6.54
2023-02-19T17:39:59.325Z,6.54
2023-02-19T17:42:25.861Z,6.52
2023-02-19T17:44:53.555Z,6.51
2023-02-19T17:47:21.378Z,6.49
2023-02-19T17:49:47.866Z,6.47
2023-02-19T17:52:17.509Z,6.46
2023-02-19T17:54:44.070Z,6.48
2023-02-19T17:57:10.587Z,6.46
2023-02-19T17:59:37.005Z,6.45
2023-02-19T18:02:03.455Z,6.44
2023-02-19T18:04:29.820Z,6.42
2023-02-19T18:06:56.301Z,6.42
2023-02-19T18:09:23.045Z,6.41
2023-02-19T18:11:49.473Z,6.37
2023-02-19T18:14:15.940Z,6.36
2023-02-19T18:16:49.763Z,6.38
2023-02-19T18:19:16.875Z,6.38
2023-02-19T18:21:43.272Z,6.33
2023-02-19T18:24:09.770Z,6.32
2023-02-19T18:26:36.183Z,6.30
2023-02-19T18:29:02.629Z,6.29
2023-02-19T18:31:32.675Z,6.29
2023-02-19T18:33:59.216Z,6.25
2023-02-19T18:36:25.704Z,6.23
2023-02-19T18:38:52.104Z,6.21
2023-02-19T18:41:21.057Z,6.13
2023-02-19T18:43:48.022Z,6.10
2023-02-19T18:46:14.817Z,6.06
2023-02-19T18:48:41.483Z,6.00
2023-02-19T18:51:11.702Z,5.97
2023-02-19T18:53:38.327Z,5.90
2023-02-19T18:56:05.536Z,5.85
2023-02-19T18:58:32.018Z,5.81
2023-02-19T19:00:59.459Z,5.76
2023-02-19T19:03:26.030Z,5.69
2023-02-19T19:05:52.685Z,5.64
2023-02-19T19:08:19.118Z,5.58
2023-02-19T19:10:45.587Z,5.53
2023-02-19T19:13:12.013Z,5.51
2023-02-19T19:15:41.295Z,5.49
2023-02-19T19:18:08.751Z,5.48
2023-02-19T19:20:35.282Z,5.47
2023-02-19T19:23:01.705Z,5.46
2023-02-19T19:25:28.137Z,5.45
2023-02-19T19:27:56.225Z,5.38
2023-02-19T19:30:23.029Z,5.32
2023-02-19T19:32:50.398Z,5.30
2023-02-19T19:35:18.946Z,5.25
2023-02-19T19:37:45.491Z,5.20
2023-02-19T19:40:12.210Z,5.14
2023-02-19T19:42:38.678Z,5.10
2023-02-19T19:45:05.840Z,5.06
2023-02-19T19:47:32.523Z,5.02
2023-02-19T19:49:58.958Z,5.00
2023-02-19T19:52:25.341Z,4.96
2023-02-19T19:54:54.717Z,4.89
2023-02-19T19:57:21.173Z,4.87
2023-02-19T19:59:53.727Z,4.84
2023-02-19T20:02:20.334Z,4.79
2023-02-19T20:04:46.893Z,4.73
2023-02-19T20:07:13.320Z,4.69
2023-02-19T20:09:39.785Z,4.67
2023-02-19T20:12:06.681Z,4.65
2023-02-19T20:14:33.764Z,4.60
2023-02-19T20:17:00.856Z,4.58
2023-02-19T20:19:27.276Z,4.55
2023-02-19T20:21:54.008Z,4.51
2023-02-19T20:24:26.321Z,4.48
2023-02-19T20:27:01.881Z,4.46
2023-02-19T20:29:30.543Z,4.44
2023-02-19T20:32:00.565Z,4.44
2023-02-19T20:34:27.688Z,4.43
2023-02-19T20:36:54.498Z,4.40
2023-02-19T20:39:21.954Z,4.37
2023-02-19T20:41:50.811Z,4.37
2023-02-19T20:44:18.502Z,4.33
2023-02-19T20:46:49.886Z,4.31
2023-02-19T20:49:19.160Z,4.28
2023-02-19T20:51:54.991Z,4.26
2023-02-19T20:54:28.123Z,4.22
2023-02-19T20:56:56.629Z,4.19
2023-02-19T20:59:27.076Z,4.17
2023-02-19T21:01:53.696Z,4.11
2023-02-19T21:04:20.213Z,4.09
2023-02-19T21:06:46.670Z,4.07
2023-02-19T21:09:13.133Z,4.04
2023-02-19T21:11:39.743Z,4.03
2023-02-19T21:14:06.486Z,4.02
2023-02-19T21:16:33.365Z,4.01
2023-02-19T21:19:01.074Z,4.01
2023-02-19T21:21:27.857Z,4.00
2023-02-19T21:23:56.159Z,3.99
2023-02-19T21:26:23.313Z,3.98
2023-02-19T21:28:53.304Z,3.99
2023-02-19T21:31:20.834Z,3.98
2023-02-19T21:33:47.404Z,3.98
2023-02-19T21:36:14.057Z,3.97
2023-02-19T21:38:40.659Z,3.97
2023-02-19T21:41:07.205Z,3.96
2023-02-19T21:43:33.604Z,3.97
2023-02-19T21:46:00.028Z,3.97
2023-02-19T21:48:26.501Z,3.98
2023-02-19T21:50:52.884Z,3.99
2023-02-19T21:53:19.432Z,3.99
2023-02-19T21:55:57.790Z,3.98
2023-02-19T21:58:24.580Z,3.98
2023-02-19T22:00:50.956Z,3.99
2023-02-19T22:03:17.426Z,3.97
2023-02-19T22:05:43.905Z,3.98
2023-02-19T22:08:10.294Z,4.00
2023-02-19T22:10:36.676Z,4.00
2023-02-19T22:13:03.080Z,3.99
2023-02-19T22:15:29.517Z,3.96
2023-02-19T22:17:55.920Z,3.96
2023-02-19T22:20:22.272Z,3.97
2023-02-19T22:22:49.767Z,3.95
2023-02-19T22:25:16.831Z,3.95
2023-02-19T22:27:43.282Z,3.97
2023-02-19T22:30:10.691Z,4.00
2023-02-19T22:32:37.283Z,4.00
2023-02-19T22:35:03.836Z,3.99
2023-02-19T22:37:30.234Z,3.98
2023-02-19T22:39:56.652Z,3.98
2023-02-19T22:42:24.216Z,3.97
2023-02-19T22:44:50.805Z,3.95
2023-02-19T22:47:18.584Z,3.94
2023-02-19T22:49:45.451Z,3.93
2023-02-19T22:52:12.704Z,3.94
2023-02-19T22:54:39.401Z,3.92
2023-02-19T22:57:06.094Z,3.92
2023-02-19T22:59:32.675Z,3.95
2023-02-19T23:01:59.116Z,3.94
2023-02-19T23:04:25.833Z,3.96
2023-02-19T23:06:52.876Z,3.98
2023-02-19T23:09:22.804Z,3.99
2023-02-19T23:11:49.226Z,4.02
2023-02-19T23:14:17.566Z,4.03
2023-02-19T23:16:44.157Z,4.06
2023-02-19T23:19:12.990Z,4.09
2023-02-19T23:21:41.138Z,4.10
2023-02-19T23:24:08.195Z,4.13
2023-02-19T23:26:35.283Z,4.15
2023-02-19T23:29:02.369Z,4.18
2023-02-19T23:31:28.961Z,4.20
2023-02-19T23:33:55.607Z,4.22
2023-02-19T23:36:23.785Z,4.25
2023-02-19T23:38:50.211Z,4.27
2023-02-19T23:41:17.608Z,4.29
2023-02-19T23:43:44.716Z,4.30
2023-02-19T23:46:17.643Z,4.33
2023-02-19T23:48:45.354Z,4.33
2023-02-19T23:51:12.288Z,4.35
2023-02-19T23:53:38.714Z,4.37
2023-02-19T23:56:05.725Z,4.37
2023-02-19T23:58:32.451Z,4.39
